Briefing drone pour Labruguiere

Rechercher une autre localisation

Conditions de vol :


Nous sommes le : Lundi 22 avril 2024
Il est 10:22 UTC (12:22 LT)

Lever de soleil : 04:29 UTC (06:29 LT)
Coucher de soleil : 19:09 UTC (21:09 LT)

Météo

L'essentiel des conditions de vol

VIGILANCE MÉTÉO FRANCE - Tarn (81)
Pas de vigilances particulieres
CARTES DES FRONTS
METAR de LFCK
LFCK 221000Z AUTO 29014KT 260V320 9999 SCT034 BKN040 BKN047 09/00 Q1021 TEMPO 30015G25KT

Date d'émission: 22/04/2024
Heure d'émission: 10:00 UTC
Vent: 290° (variable du 260° au 320°) pour 14 KT (26 km/h)
Visibilité horizontale: > 10 km
Plafond :
- Nuages épars à 3400ft (1036m)
- Nuages morcelés à 4000ft (1219m)
- Nuages morcelés à 4700ft (1433m)
Température: 9 °C
Point de rosée: 0 °C
Humidité: 53%
Pression (QNH): 1021 hPa

Temporairement:

Vent : 300° pour 15 KT (28 km/h) rafales pour 25 KT (46 km/h)
Prévision 24h pour Castres (5 km)
Vent : 271° pour 2 KT (7 km/h)
Temperature Maxi: 1 °C
Temperature Min: 1 °C
Humidité : 92%
Condition : Nuageux


WEBCAM POUR LABRUGUIERE

Réglementation

Voler en sécurité

CARTES AERONAUTIQUE 1/500.000
CARTE AZBA (Reseau basse altitude)
CARTES VAC (LFCK)
SUP AIP




Chargement des AIP...
NOTAM (LABRUGUIERE + Terrain à proximité / FIR )




Chargement des NOTAMS...
CONTACT PREFECTURE 81
Tarn (81) : [email protected]


Avertissement : Les données mises à disposition sont indicatives. Oxygène Drone ne pourra être tenu responsable de dégâts causés aux biens et aux personnes.